createdAt,value
2018-09-28T00:02:04.610Z,101596.42
2018-09-28T00:07:07.711Z,101596.73
2018-09-28T00:12:10.804Z,101595.83
2018-09-28T00:17:13.869Z,101605.36
2018-09-28T00:22:17.001Z,101608.66
2018-09-28T00:27:20.151Z,101598.77
2018-09-28T00:32:23.295Z,101589.95
2018-09-28T00:37:26.468Z,101587.66
2018-09-28T00:42:29.644Z,101580.94
2018-09-28T00:47:32.968Z,101585.27
2018-09-28T00:52:36.112Z,101583.89
2018-09-28T00:57:39.267Z,101589.05
2018-09-28T01:02:42.412Z,101589.11
2018-09-28T01:07:45.596Z,101588.28
2018-09-28T01:12:48.773Z,101583.17
2018-09-28T01:17:51.939Z,101585.05
2018-09-28T01:22:54.997Z,101589.48
2018-09-28T01:27:58.248Z,101586.83
2018-09-28T01:33:01.343Z,101593.66
2018-09-28T01:38:04.535Z,101585.34
2018-09-28T01:43:07.719Z,101588.08
2018-09-28T01:48:10.836Z,101583.34
2018-09-28T01:53:13.918Z,101587.41
2018-09-28T01:58:16.998Z,101585.20
2018-09-28T02:03:20.067Z,101596.28
2018-09-28T02:08:23.131Z,101604.37
2018-09-28T02:13:27.110Z,101601.89
2018-09-28T02:18:30.250Z,101604.06
2018-09-28T02:23:33.327Z,101613.17
2018-09-28T02:28:36.659Z,101616.05
2018-09-28T02:33:39.732Z,101614.16
2018-09-28T02:38:42.792Z,101603.45
2018-09-28T02:43:47.251Z,101606.42
2018-09-28T02:48:50.399Z,101611.05
2018-09-28T02:53:53.444Z,101617.36
2018-09-28T02:58:56.527Z,101621.52
2018-09-28T03:03:59.639Z,101621.06
2018-09-28T03:09:03.119Z,101623.17
2018-09-28T03:14:06.676Z,101622.81
2018-09-28T03:19:09.874Z,101626.13
2018-09-28T03:24:12.972Z,101630.27
2018-09-28T03:29:16.040Z,101636.64
2018-09-28T03:34:19.120Z,101643.17
2018-09-28T03:39:22.292Z,101645.12
2018-09-28T03:44:25.392Z,101648.44
2018-09-28T03:49:28.475Z,101656.11
2018-09-28T03:54:31.721Z,101645.97
2018-09-28T03:59:34.781Z,101656.92
2018-09-28T04:04:37.854Z,101657.11
2018-09-28T04:09:41.007Z,101662.95
2018-09-28T04:14:44.135Z,101662.53
2018-09-28T04:19:47.309Z,101668.29
2018-09-28T04:24:50.388Z,101668.23
2018-09-28T04:29:53.524Z,101679.52
2018-09-28T04:34:56.751Z,101690.34
2018-09-28T04:39:59.804Z,101692.53
2018-09-28T04:45:03.002Z,101704.73
2018-09-28T04:50:06.111Z,101714.96
2018-09-28T04:55:09.229Z,101728.97
2018-09-28T05:00:12.384Z,101738.95
2018-09-28T05:05:15.442Z,101744.64
2018-09-28T05:10:18.596Z,101757.68
2018-09-28T05:15:21.727Z,101762.14
2018-09-28T05:20:24.928Z,101764.61
2018-09-28T05:25:28.231Z,101770.25
2018-09-28T05:30:31.404Z,101774.42
2018-09-28T05:35:34.524Z,101782.83
2018-09-28T05:40:37.859Z,101793.27
2018-09-28T05:45:40.961Z,101802.41
2018-09-28T05:50:44.021Z,101806.56
2018-09-28T05:55:47.110Z,101813.68
2018-09-28T06:00:55.656Z,101832.69
2018-09-28T06:06:03.673Z,101837.84
2018-09-28T06:11:06.852Z,101844.69
2018-09-28T06:16:09.989Z,101857.41
2018-09-28T06:21:22.646Z,101856.75
2018-09-28T06:32:10.779Z,101877.13
2018-09-28T06:37:13.875Z,101877.36
2018-09-28T06:42:17.025Z,101893.49
2018-09-28T06:47:20.099Z,101899.25
2018-09-28T06:52:23.200Z,101906.23
2018-09-28T06:57:26.253Z,101918.92
2018-09-28T07:02:29.348Z,101933.55
2018-09-28T07:07:32.432Z,101934.81
2018-09-28T07:12:35.524Z,101946.30
2018-09-28T07:17:38.646Z,101957.89
2018-09-28T07:22:41.761Z,101968.44
2018-09-28T07:27:44.876Z,101972.86
2018-09-28T07:32:47.979Z,101985.23
2018-09-28T07:37:51.043Z,101992.17
2018-09-28T07:42:54.103Z,101999.53
2018-09-28T07:47:57.231Z,102004.42
2018-09-28T07:53:00.266Z,102005.30
2018-09-28T07:58:03.388Z,102016.35
2018-09-28T08:03:06.524Z,102014.65
2018-09-28T08:08:09.567Z,102016.21
2018-09-28T08:13:12.657Z,102023.95
2018-09-28T08:18:15.752Z,102021.67
2018-09-28T08:23:18.905Z,102038.70
2018-09-28T08:28:21.991Z,102046.59
2018-09-28T08:33:25.096Z,102055.16
2018-09-28T08:38:28.185Z,102049.36
2018-09-28T08:43:31.323Z,102059.09
2018-09-28T08:48:34.492Z,102056.63
2018-09-28T08:53:37.563Z,102049.41
2018-09-28T08:58:40.714Z,102075.55
2018-09-28T09:03:43.855Z,102071.77
2018-09-28T09:08:47.004Z,102088.86
2018-09-28T09:13:50.072Z,102083.18
2018-09-28T09:18:53.259Z,102084.58
2018-09-28T09:23:56.470Z,102084.67
2018-09-28T09:28:59.548Z,102088.17
2018-09-28T09:34:02.625Z,102087.48
2018-09-28T09:39:08.046Z,102086.86
2018-09-28T09:44:11.136Z,102087.45
2018-09-28T09:49:14.255Z,102085.83
2018-09-28T09:54:17.333Z,102094.94
2018-09-28T09:59:20.421Z,102088.53
2018-09-28T10:04:23.656Z,102091.39
2018-09-28T10:09:27.371Z,102093.44
2018-09-28T10:14:33.792Z,102093.59
2018-09-28T10:19:37.042Z,102091.11
2018-09-28T10:24:40.095Z,102092.25
2018-09-28T10:29:43.166Z,102095.21
2018-09-28T10:34:46.338Z,102106.07
2018-09-28T10:39:49.505Z,102087.92
2018-09-28T10:44:52.543Z,102092.31
2018-09-28T10:49:55.603Z,102087.73
2018-09-28T10:54:58.679Z,102098.03
2018-09-28T11:00:01.889Z,102095.47
2018-09-28T11:05:05.132Z,102089.94
2018-09-28T11:10:08.397Z,102103.16
2018-09-28T11:15:11.513Z,102098.86
2018-09-28T11:20:14.590Z,102094.53
2018-09-28T11:25:17.679Z,102097.08
2018-09-28T11:30:20.739Z,102088.16
2018-09-28T11:35:23.808Z,102096.30
2018-09-28T11:40:26.944Z,102099.21
2018-09-28T11:45:30.178Z,102107.36
2018-09-28T11:50:34.059Z,102102.51
2018-09-28T11:55:37.656Z,102112.52
2018-09-28T12:00:40.933Z,102104.03
2018-09-28T12:05:44.772Z,102102.61
2018-09-28T12:10:47.927Z,102104.75
2018-09-28T12:15:51.200Z,102103.39
2018-09-28T12:20:54.163Z,102099.59
2018-09-28T12:25:57.316Z,102102.34
2018-09-28T12:31:00.479Z,102107.13
2018-09-28T12:36:03.626Z,102106.59
2018-09-28T12:41:06.853Z,102121.73
2018-09-28T12:46:10.095Z,102104.69
2018-09-28T12:51:13.496Z,102106.55
2018-09-28T12:56:16.632Z,102114.15
2018-09-28T13:01:19.904Z,102105.65
2018-09-28T13:06:23.213Z,102107.80
2018-09-28T13:11:26.354Z,102102.37
2018-09-28T13:16:29.474Z,102101.25
2018-09-28T13:21:32.607Z,102106.67
2018-09-28T13:26:35.743Z,102118.55
2018-09-28T13:31:38.907Z,102112.99
2018-09-28T13:36:42.153Z,102110.49
2018-09-28T13:41:45.287Z,102125.77
2018-09-28T13:46:48.463Z,102127.91
2018-09-28T13:51:52.455Z,102122.88
2018-09-28T13:56:55.570Z,102124.30
2018-09-28T14:01:58.671Z,102120.55
2018-09-28T14:07:01.862Z,102126.69
2018-09-28T14:12:04.928Z,102134.80
2018-09-28T14:17:08.106Z,102136.79
2018-09-28T14:22:11.564Z,102137.75
2018-09-28T14:27:14.687Z,102138.78
2018-09-28T14:32:17.798Z,102150.81
2018-09-28T14:37:20.924Z,102179.80
2018-09-28T14:42:24.088Z,102184.17
2018-09-28T14:47:27.233Z,102180.02
2018-09-28T14:52:30.577Z,102186.34
2018-09-28T14:57:33.699Z,102186.98
2018-09-28T15:02:36.939Z,102190.80
2018-09-28T15:07:40.198Z,102191.90
2018-09-28T15:12:43.221Z,102188.02
2018-09-28T15:17:46.392Z,102202.95
2018-09-28T15:22:49.499Z,102191.42
2018-09-28T15:27:52.583Z,102184.22
2018-09-28T15:32:55.697Z,102189.83
2018-09-28T15:37:58.815Z,102196.02
2018-09-28T15:43:01.899Z,102195.62
2018-09-28T15:48:05.093Z,102206.17
2018-09-28T15:53:08.187Z,102206.91
2018-09-28T15:58:11.364Z,102220.31
2018-09-28T16:03:14.423Z,102224.11
2018-09-28T16:08:17.504Z,102228.82
2018-09-28T16:13:20.584Z,102226.00
2018-09-28T16:18:23.668Z,102221.58
2018-09-28T16:23:26.714Z,102223.16
2018-09-28T16:28:31.607Z,102242.73
2018-09-28T16:33:35.335Z,102245.56
2018-09-28T16:38:38.745Z,102248.56
2018-09-28T16:43:42.712Z,102250.73
2018-09-28T16:48:45.844Z,102272.22
2018-09-28T16:53:49.264Z,102273.02
2018-09-28T16:58:52.439Z,102267.13
2018-09-28T17:03:55.647Z,102274.92
2018-09-28T17:08:58.784Z,102284.39
2018-09-28T17:14:01.824Z,102291.87
2018-09-28T17:19:04.996Z,102306.81
2018-09-28T17:24:08.123Z,102315.19
2018-09-28T17:29:11.506Z,102321.44
2018-09-28T17:34:14.789Z,102327.81
2018-09-28T17:39:18.891Z,102329.91
2018-09-28T17:44:22.271Z,102332.89
2018-09-28T17:49:27.429Z,102342.28
2018-09-28T17:54:31.857Z,102346.92
2018-09-28T17:59:35.777Z,102355.34
2018-09-28T18:04:39.203Z,102365.11
2018-09-28T18:09:43.118Z,102379.34
2018-09-28T18:14:46.496Z,102386.59
2018-09-28T18:19:49.873Z,102385.84
2018-09-28T18:24:53.051Z,102405.56
2018-09-28T18:29:56.195Z,102415.75
2018-09-28T18:34:59.257Z,102424.66
2018-09-28T18:40:02.391Z,102421.19
2018-09-28T18:45:05.677Z,102415.66
2018-09-28T18:50:08.876Z,102423.20
2018-09-28T18:55:12.842Z,102425.09
2018-09-28T19:00:15.979Z,102423.91
2018-09-28T19:05:19.439Z,102421.78
2018-09-28T19:10:23.345Z,102422.28
2018-09-28T19:15:26.724Z,102423.66
2018-09-28T19:20:30.151Z,102421.99
2018-09-28T19:25:34.731Z,102419.89
2018-09-28T19:30:38.969Z,102429.59
2018-09-28T19:35:42.532Z,102434.91
2018-09-28T19:40:45.649Z,102441.25
2018-09-28T19:45:48.871Z,102454.53
2018-09-28T19:50:52.057Z,102448.48
2018-09-28T19:55:55.568Z,102454.70
2018-09-28T20:00:58.687Z,102463.95
2018-09-28T20:06:01.823Z,102476.77
2018-09-28T20:11:05.191Z,102481.69
2018-09-28T20:16:08.468Z,102484.84
2018-09-28T20:21:12.076Z,102485.81
2018-09-28T20:26:15.179Z,102486.81
2018-09-28T20:31:18.247Z,102488.31
2018-09-28T20:36:21.299Z,102493.71
2018-09-28T20:41:24.415Z,102500.30
2018-09-28T20:46:27.762Z,102504.82
2018-09-28T20:51:30.945Z,102502.68
2018-09-28T20:56:34.028Z,102501.38
2018-09-28T21:01:37.093Z,102500.57
2018-09-28T21:06:40.150Z,102510.25
2018-09-28T21:11:43.232Z,102516.05
2018-09-28T21:16:46.326Z,102523.09
2018-09-28T21:21:49.379Z,102534.52
2018-09-28T21:26:52.444Z,102535.94
2018-09-28T21:31:55.579Z,102533.34
2018-09-28T21:36:58.648Z,102519.04
2018-09-28T21:42:01.726Z,102546.02
2018-09-28T21:47:04.844Z,102548.62
2018-09-28T21:52:07.956Z,102543.80
2018-09-28T21:57:11.071Z,102546.02
2018-09-28T22:02:14.172Z,102537.77
2018-09-28T22:07:17.283Z,102537.77
2018-09-28T22:12:20.383Z,102533.46
2018-09-28T22:17:23.481Z,102534.02
2018-09-28T22:22:26.544Z,102528.89
2018-09-28T22:27:29.612Z,102535.14
2018-09-28T22:32:32.731Z,102548.73
2018-09-28T22:37:35.825Z,102558.41
2018-09-28T22:42:38.930Z,102566.34
2018-09-28T22:47:42.026Z,102565.03
2018-09-28T22:52:45.180Z,102574.22
2018-09-28T22:57:48.264Z,102574.23
2018-09-28T23:02:51.363Z,102566.78
2018-09-28T23:07:54.487Z,102558.97
2018-09-28T23:12:57.611Z,102554.63
2018-09-28T23:18:00.692Z,102565.99
2018-09-28T23:23:03.780Z,102555.09
2018-09-28T23:28:06.882Z,102555.52
2018-09-28T23:33:09.980Z,102559.43
2018-09-28T23:38:13.143Z,102569.02
2018-09-28T23:43:16.225Z,102565.97
2018-09-28T23:48:19.303Z,102576.44
2018-09-28T23:53:22.407Z,102580.36
2018-09-28T23:58:25.558Z,102588.66
